Kelsey 2 — D7BG — position and weather

sailwx.info

Track history (hours):
 
Tides and Currents Weather Stations Pressure Air Temp Water Temp Dewpoint Dewpoint Depression Visibility Wind Speed Wind Dir Waves Ship Positions

Kelsey 2

Last reported at 2018-Jun-13 07:11 UTC. Time now 2018-Jun-18 22:40 UTC.
Position N 01°23' E 104°29'.

Length 121 m; draft 7.9 m.

Type: Ship. MMSI: 440128000.

Date/timePositionNaut miles runAvg speedWind from/ knotsBaromVisibWave heightAir tempDewpointWater temp
2018-Jun-13 07:11N 01°23' E 104°29'413.2
2018-Jun-13 06:54N 01°21' E 104°25'512.6
2018-Jun-13 06:29N 01°18' E 104°21'612.3
2018-Jun-13 06:00N 01°16' E 104°16'712.4
2018-Jun-13 05:28N 01°16' E 104°09'611.0
2018-Jun-13 04:58N 01°20' E 104°05'510.3
2018-Jun-13 04:30N 01°23' E 104°01'5 9.7
2018-Jun-13 04:00N 01°24' E 103°56'3 4.2
2018-Jun-13 03:19N 01°26' E 103°54'0 0.0
2018-Jun-13 02:55N 01°26' E 103°54'0 0.0
2018-Jun-13 02:25N 01°26' E 103°54'0 0.0
2018-Jun-13 01:59N 01°26' E 103°54'0 0.0
2018-Jun-13 00:40N 01°26' E 103°54'0 0.0
2018-Jun-13 00:10N 01°26' E 103°54'0 0.0
2018-Jun-12 23:59N 01°26' E 103°54'0 0.0
2018-Jun-12 23:22N 01°26' E 103°54'0 0.0
2018-Jun-12 22:48N 01°26' E 103°54'0 0.0
2018-Jun-12 22:25N 01°26' E 103°54'0 0.0
2018-Jun-12 21:58N 01°26' E 103°54'0 0.0
2018-Jun-12 21:25N 01°26' E 103°54'0 0.0
2018-Jun-12 20:55N 01°26' E 103°54'0 0.0
2018-Jun-12 20:28N 01°26' E 103°54'0 0.0
2018-Jun-12 19:04N 01°26' E 103°54'0 0.0
2018-Jun-12 18:58N 01°26' E 103°54'0 0.0
2018-Jun-12 18:28N 01°26' E 103°54'0 0.0
2018-Jun-12 17:40N 01°26' E 103°54'0 0.0
2018-Jun-12 17:28N 01°26' E 103°54'0 0.0
2018-Jun-12 16:55N 01°26' E 103°54'0 0.0
2018-Jun-12 16:28N 01°26' E 103°54'0 0.0
2018-Jun-12 15:58N 01°26' E 103°54'0 0.0
2018-Jun-12 15:28N 01°26' E 103°54'0 0.0
2018-Jun-12 14:56N 01°26' E 103°54'0 0.0
2018-Jun-12 14:26N 01°26' E 103°54'0 0.0
2018-Jun-12 13:56N 01°26' E 103°54'0 0.0
2018-Jun-12 13:28N 01°26' E 103°54'0 0.0
2018-Jun-12 12:55N 01°26' E 103°54'0 0.0
2018-Jun-12 12:28N 01°26' E 103°54'0 0.0
2018-Jun-12 11:58N 01°26' E 103°54'0 0.0
2018-Jun-12 11:23N 01°26' E 103°54'0 0.0
2018-Jun-12 10:55N 01°26' E 103°54'0 0.0
2018-Jun-12 10:26N 01°26' E 103°54'0 0.0
2018-Jun-12 09:58N 01°26' E 103°54'0 0.0
2018-Jun-12 09:28N 01°26' E 103°54'0 0.0
2018-Jun-12 08:47N 01°26' E 103°54'0 0.0
2018-Jun-12 08:26N 01°26' E 103°54'1 1.2
2018-Jun-12 08:00N 01°26' E 103°55'3 7.0
2018-Jun-12 07:30N 01°24' E 103°57'5 9.6
2018-Jun-12 07:00N 01°22' E 104°02'4 8.7
2018-Jun-12 06:29N 01°20' E 104°06'1 1.4
2018-Jun-12 05:54N 01°20' E 104°06'0 0.0
2018-Jun-12 05:17N 01°20' E 104°06'0 0.0
2018-Jun-12 04:57N 01°20' E 104°06'0 0.0
2018-Jun-12 04:18N 01°20' E 104°06'0 0.2
2018-Jun-12 03:57N 01°20' E 104°06'0 0.0
2018-Jun-12 02:05N 01°20' E 104°06'0 1.2
2018-Jun-12 01:59N 01°20' E 104°06'2 4.5
2018-Jun-12 01:30N 01°18' E 104°07'611.1
2018-Jun-12 00:59N 01°17' E 104°13'613.2
2018-Jun-12 00:30N 01°19' E 104°19'814.3
2018-Jun-11 23:57N 01°24' E 104°25'2111.2
2018-Jun-11 22:07N 01°42' E 104°34'411.8
2018-Jun-11 21:47N 01°46' E 104°34'17 0.8
2018-Jun-10 23:43N 01°29' E 104°33'513.2
2018-Jun-10 23:23N 01°26' E 104°30'612.7
2018-Jun-10 22:55N 01°22' E 104°25'614.1
2018-Jun-10 22:30N 01°18' E 104°21'612.2
2018-Jun-10 22:00N 01°17' E 104°15'713.2
2018-Jun-10 21:30N 01°16' E 104°08'611.8
2018-Jun-10 21:00N 01°15' E 104°03'612.6
2018-Jun-10 20:30N 01°13' E 103°57'612.2
2018-Jun-10 20:00N 01°12' E 103°51'3 5.5
2018-Jun-10 19:31N 01°13' E 103°48'3 6.6
2018-Jun-10 19:00N 01°15' E 103°46'3 6.1
2018-Jun-10 18:28N 01°15' E 103°42'0 0.0
2018-Jun-10 17:46N 01°15' E 103°42'0 0.0
2018-Jun-10 17:28N 01°15' E 103°42'0 0.0
2018-Jun-10 16:58N 01°15' E 103°42'0 0.0
2018-Jun-10 16:25N 01°15' E 103°42'0 0.0
2018-Jun-10 15:52N 01°15' E 103°42'0 0.0
2018-Jun-10 15:25N 01°15' E 103°42'0 0.0
2018-Jun-10 13:55N 01°15' E 103°42'0 0.0
2018-Jun-10 12:55N 01°15' E 103°42'0 0.0
2018-Jun-10 12:04N 01°15' E 103°42'0 0.0
2018-Jun-10 11:40N 01°15' E 103°42'0 0.0
2018-Jun-10 11:30N 01°15' E 103°42'0 0.0
2018-Jun-10 10:40N 01°15' E 103°42'0 0.0
2018-Jun-10 10:22N 01°15' E 103°42'0 0.0
2018-Jun-10 09:58N 01°15' E 103°42'0 0.0
2018-Jun-10 09:25N 01°15' E 103°42'0 0.0
2018-Jun-10 08:58N 01°15' E 103°42'0 0.0
2018-Jun-10 08:07N 01°15' E 103°42'0 0.0
2018-Jun-10 07:37N 01°15' E 103°42'0 0.0
2018-Jun-10 07:22N 01°15' E 103°42'0 0.0
2018-Jun-10 06:58N 01°15' E 103°42'0 0.0
2018-Jun-10 06:22N 01°15' E 103°42'0 0.0
2018-Jun-10 04:43N 01°15' E 103°42'0 0.0
2018-Jun-10 04:28N 01°15' E 103°42'0 0.0
2018-Jun-10 03:51N 01°15' E 103°42'0 0.0
2018-Jun-10 03:28N 01°15' E 103°42'0 0.0
2018-Jun-10 02:52N 01°15' E 103°42'0 0.0
2018-Jun-10 02:19N 01°15' E 103°42'0 0.0
2018-Jun-10 01:54N 01°15' E 103°42'0 0.0
2018-Jun-10 01:28N 01°15' E 103°42'0 0.0
2018-Jun-10 00:58N 01°15' E 103°42'0 0.0
2018-Jun-09 23:37N 01°15' E 103°42'0 0.0
2018-Jun-09 23:30N 01°15' E 103°42'0 0.1
2018-Jun-09 23:00N 01°15' E 103°42'4 7.1
2018-Jun-09 22:30N 01°16' E 103°46'3 5.6
2018-Jun-09 22:00N 01°14' E 103°48'0 0.0
2018-Jun-09 21:23N 01°14' E 103°48'0 0.0
2018-Jun-09 20:59N 01°14' E 103°48'0 0.0
2018-Jun-09 20:29N 01°14' E 103°48'0 0.0
2018-Jun-09 19:56N 01°14' E 103°48'0 0.0
2018-Jun-09 19:29N 01°14' E 103°48'0 0.0
2018-Jun-09 19:01N 01°14' E 103°48'0 0.1
2018-Jun-09 18:31N 01°14' E 103°48'0 0.0
2018-Jun-09 18:01N 01°14' E 103°48'0 0.0
2018-Jun-09 17:30N 01°14' E 103°48'0 0.0
2018-Jun-09 16:59N 01°14' E 103°48'0 0.0
2018-Jun-09 16:29N 01°14' E 103°48'0 0.0
2018-Jun-09 15:59N 01°14' E 103°48'2 1.8
2018-Jun-09 14:56N 01°13' E 103°50'0 0.0
2018-Jun-09 14:29N 01°13' E 103°50'1 2.6
2018-Jun-09 14:00N 01°12' E 103°51'5 9.4
2018-Jun-09 13:30N 01°14' E 103°55'4 6.4
2018-Jun-09 12:56N 01°16' E 103°58'1 1.6
2018-Jun-09 12:30N 01°15' E 103°58'3 5.8
2018-Jun-09 12:00N 01°14' E 103°56'4 8.3
2018-Jun-09 11:30N 01°12' E 103°52'510.6
2018-Jun-09 11:00N 01°09' E 103°47'510.8
2018-Jun-09 10:30N 01°05' E 103°44'611.9
2018-Jun-09 09:59N 01°03' E 103°38'612.6
2018-Jun-09 09:30N 01°06' E 103°33'612.4
2018-Jun-09 09:00N 01°09' E 103°27'612.5
2018-Jun-09 08:30N 01°13' E 103°22'612.5
2018-Jun-09 08:00N 01°17' E 103°18'712.6
2018-Jun-09 07:29N 01°21' E 103°13'3 0.1
2018-Jun-07 13:34N 01°23' E 103°15'212.9
2018-Jun-07 13:25N 01°21' E 103°17'612.9
2018-Jun-07 12:58N 01°18' E 103°21'612.1
2018-Jun-07 12:30N 01°14' E 103°25'712.9
2018-Jun-07 12:00N 01°12' E 103°32'611.7
2018-Jun-07 11:30N 01°11' E 103°37'712.8
2018-Jun-07 10:59N 01°09' E 103°43'612.4
2018-Jun-07 10:31N 01°11' E 103°49'713.1
2018-Jun-07 10:00N 01°14' E 103°55'612.8
2018-Jun-07 09:30N 01°15' E 104°01'713.5
2018-Jun-07 09:00N 01°16' E 104°08'713.2
2018-Jun-07 08:29N 01°17' E 104°15'812.8
2018-Jun-07 07:52N 01°20' E 104°22'  
Track history (hours):
 
Tides and Currents Weather Stations Pressure Air Temp Water Temp Dewpoint Dewpoint Depression Visibility Wind Speed Wind Dir Waves Ship Positions

Kelsey 2

Last reported at 2018-Jun-13 07:11 UTC. Time now 2018-Jun-18 22:40 UTC.
Position N 01°23' E 104°29'.

Length 121 m; draft 7.9 m.

Type: Ship. MMSI: 440128000.

Date/timePositionNaut miles runAvg speedWind from/ knotsBaromVisibWave heightAir tempDewpointWater temp
2018-Jun-13 07:11N 01°23' E 104°29'413.2
2018-Jun-13 06:54N 01°21' E 104°25'512.6
2018-Jun-13 06:29N 01°18' E 104°21'612.3
2018-Jun-13 06:00N 01°16' E 104°16'712.4
2018-Jun-13 05:28N 01°16' E 104°09'611.0
2018-Jun-13 04:58N 01°20' E 104°05'510.3
2018-Jun-13 04:30N 01°23' E 104°01'5 9.7
2018-Jun-13 04:00N 01°24' E 103°56'3 4.2
2018-Jun-13 03:19N 01°26' E 103°54'0 0.0
2018-Jun-13 02:55N 01°26' E 103°54'0 0.0
2018-Jun-13 02:25N 01°26' E 103°54'0 0.0
2018-Jun-13 01:59N 01°26' E 103°54'0 0.0
2018-Jun-13 00:40N 01°26' E 103°54'0 0.0
2018-Jun-13 00:10N 01°26' E 103°54'0 0.0
2018-Jun-12 23:59N 01°26' E 103°54'0 0.0
2018-Jun-12 23:22N 01°26' E 103°54'0 0.0
2018-Jun-12 22:48N 01°26' E 103°54'0 0.0
2018-Jun-12 22:25N 01°26' E 103°54'0 0.0
2018-Jun-12 21:58N 01°26' E 103°54'0 0.0
2018-Jun-12 21:25N 01°26' E 103°54'0 0.0
2018-Jun-12 20:55N 01°26' E 103°54'0 0.0
2018-Jun-12 20:28N 01°26' E 103°54'0 0.0
2018-Jun-12 19:04N 01°26' E 103°54'0 0.0
2018-Jun-12 18:58N 01°26' E 103°54'0 0.0
2018-Jun-12 18:28N 01°26' E 103°54'0 0.0
2018-Jun-12 17:40N 01°26' E 103°54'0 0.0
2018-Jun-12 17:28N 01°26' E 103°54'0 0.0
2018-Jun-12 16:55N 01°26' E 103°54'0 0.0
2018-Jun-12 16:28N 01°26' E 103°54'0 0.0
2018-Jun-12 15:58N 01°26' E 103°54'0 0.0
2018-Jun-12 15:28N 01°26' E 103°54'0 0.0
2018-Jun-12 14:56N 01°26' E 103°54'0 0.0
2018-Jun-12 14:26N 01°26' E 103°54'0 0.0
2018-Jun-12 13:56N 01°26' E 103°54'0 0.0
2018-Jun-12 13:28N 01°26' E 103°54'0 0.0
2018-Jun-12 12:55N 01°26' E 103°54'0 0.0
2018-Jun-12 12:28N 01°26' E 103°54'0 0.0
2018-Jun-12 11:58N 01°26' E 103°54'0 0.0
2018-Jun-12 11:23N 01°26' E 103°54'0 0.0
2018-Jun-12 10:55N 01°26' E 103°54'0 0.0
2018-Jun-12 10:26N 01°26' E 103°54'0 0.0
2018-Jun-12 09:58N 01°26' E 103°54'0 0.0
2018-Jun-12 09:28N 01°26' E 103°54'0 0.0
2018-Jun-12 08:47N 01°26' E 103°54'0 0.0
2018-Jun-12 08:26N 01°26' E 103°54'1 1.2
2018-Jun-12 08:00N 01°26' E 103°55'3 7.0
2018-Jun-12 07:30N 01°24' E 103°57'5 9.6
2018-Jun-12 07:00N 01°22' E 104°02'4 8.7
2018-Jun-12 06:29N 01°20' E 104°06'1 1.4
2018-Jun-12 05:54N 01°20' E 104°06'0 0.0
2018-Jun-12 05:17N 01°20' E 104°06'0 0.0
2018-Jun-12 04:57N 01°20' E 104°06'0 0.0
2018-Jun-12 04:18N 01°20' E 104°06'0 0.2
2018-Jun-12 03:57N 01°20' E 104°06'0 0.0
2018-Jun-12 02:05N 01°20' E 104°06'0 1.2
2018-Jun-12 01:59N 01°20' E 104°06'2 4.5
2018-Jun-12 01:30N 01°18' E 104°07'611.1
2018-Jun-12 00:59N 01°17' E 104°13'613.2
2018-Jun-12 00:30N 01°19' E 104°19'814.3
2018-Jun-11 23:57N 01°24' E 104°25'2111.2
2018-Jun-11 22:07N 01°42' E 104°34'411.8
2018-Jun-11 21:47N 01°46' E 104°34'17 0.8
2018-Jun-10 23:43N 01°29' E 104°33'513.2
2018-Jun-10 23:23N 01°26' E 104°30'612.7
2018-Jun-10 22:55N 01°22' E 104°25'614.1
2018-Jun-10 22:30N 01°18' E 104°21'612.2
2018-Jun-10 22:00N 01°17' E 104°15'713.2
2018-Jun-10 21:30N 01°16' E 104°08'611.8
2018-Jun-10 21:00N 01°15' E 104°03'612.6
2018-Jun-10 20:30N 01°13' E 103°57'612.2
2018-Jun-10 20:00N 01°12' E 103°51'3 5.5
2018-Jun-10 19:31N 01°13' E 103°48'3 6.6
2018-Jun-10 19:00N 01°15' E 103°46'3 6.1
2018-Jun-10 18:28N 01°15' E 103°42'0 0.0
2018-Jun-10 17:46N 01°15' E 103°42'0 0.0
2018-Jun-10 17:28N 01°15' E 103°42'0 0.0
2018-Jun-10 16:58N 01°15' E 103°42'0 0.0
2018-Jun-10 16:25N 01°15' E 103°42'0 0.0
2018-Jun-10 15:52N 01°15' E 103°42'0 0.0
2018-Jun-10 15:25N 01°15' E 103°42'0 0.0
2018-Jun-10 13:55N 01°15' E 103°42'0 0.0
2018-Jun-10 12:55N 01°15' E 103°42'0 0.0
2018-Jun-10 12:04N 01°15' E 103°42'0 0.0
2018-Jun-10 11:40N 01°15' E 103°42'0 0.0
2018-Jun-10 11:30N 01°15' E 103°42'0 0.0
2018-Jun-10 10:40N 01°15' E 103°42'0 0.0
2018-Jun-10 10:22N 01°15' E 103°42'0 0.0
2018-Jun-10 09:58N 01°15' E 103°42'0 0.0
2018-Jun-10 09:25N 01°15' E 103°42'0 0.0
2018-Jun-10 08:58N 01°15' E 103°42'0 0.0
2018-Jun-10 08:07N 01°15' E 103°42'0 0.0
2018-Jun-10 07:37N 01°15' E 103°42'0 0.0
2018-Jun-10 07:22N 01°15' E 103°42'0 0.0
2018-Jun-10 06:58N 01°15' E 103°42'0 0.0
2018-Jun-10 06:22N 01°15' E 103°42'0 0.0
2018-Jun-10 04:43N 01°15' E 103°42'0 0.0
2018-Jun-10 04:28N 01°15' E 103°42'0 0.0
2018-Jun-10 03:51N 01°15' E 103°42'0 0.0
2018-Jun-10 03:28N 01°15' E 103°42'0 0.0
2018-Jun-10 02:52N 01°15' E 103°42'0 0.0
2018-Jun-10 02:19N 01°15' E 103°42'0 0.0
2018-Jun-10 01:54N 01°15' E 103°42'0 0.0
2018-Jun-10 01:28N 01°15' E 103°42'0 0.0
2018-Jun-10 00:58N 01°15' E 103°42'0 0.0
2018-Jun-09 23:37N 01°15' E 103°42'0 0.0
2018-Jun-09 23:30N 01°15' E 103°42'0 0.1
2018-Jun-09 23:00N 01°15' E 103°42'4 7.1
2018-Jun-09 22:30N 01°16' E 103°46'3 5.6
2018-Jun-09 22:00N 01°14' E 103°48'0 0.0
2018-Jun-09 21:23N 01°14' E 103°48'0 0.0
2018-Jun-09 20:59N 01°14' E 103°48'0 0.0
2018-Jun-09 20:29N 01°14' E 103°48'0 0.0
2018-Jun-09 19:56N 01°14' E 103°48'0 0.0
2018-Jun-09 19:29N 01°14' E 103°48'0 0.0
2018-Jun-09 19:01N 01°14' E 103°48'0 0.1
2018-Jun-09 18:31N 01°14' E 103°48'0 0.0
2018-Jun-09 18:01N 01°14' E 103°48'0 0.0
2018-Jun-09 17:30N 01°14' E 103°48'0 0.0
2018-Jun-09 16:59N 01°14' E 103°48'0 0.0
2018-Jun-09 16:29N 01°14' E 103°48'0 0.0
2018-Jun-09 15:59N 01°14' E 103°48'2 1.8
2018-Jun-09 14:56N 01°13' E 103°50'0 0.0
2018-Jun-09 14:29N 01°13' E 103°50'1 2.6
2018-Jun-09 14:00N 01°12' E 103°51'5 9.4
2018-Jun-09 13:30N 01°14' E 103°55'4 6.4
2018-Jun-09 12:56N 01°16' E 103°58'1 1.6
2018-Jun-09 12:30N 01°15' E 103°58'3 5.8
2018-Jun-09 12:00N 01°14' E 103°56'4 8.3
2018-Jun-09 11:30N 01°12' E 103°52'510.6
2018-Jun-09 11:00N 01°09' E 103°47'510.8
2018-Jun-09 10:30N 01°05' E 103°44'611.9
2018-Jun-09 09:59N 01°03' E 103°38'612.6
2018-Jun-09 09:30N 01°06' E 103°33'612.4
2018-Jun-09 09:00N 01°09' E 103°27'612.5
2018-Jun-09 08:30N 01°13' E 103°22'612.5
2018-Jun-09 08:00N 01°17' E 103°18'712.6
2018-Jun-09 07:29N 01°21' E 103°13'3 0.1
2018-Jun-07 13:34N 01°23' E 103°15'212.9
2018-Jun-07 13:25N 01°21' E 103°17'612.9
2018-Jun-07 12:58N 01°18' E 103°21'612.1
2018-Jun-07 12:30N 01°14' E 103°25'712.9
2018-Jun-07 12:00N 01°12' E 103°32'611.7
2018-Jun-07 11:30N 01°11' E 103°37'712.8
2018-Jun-07 10:59N 01°09' E 103°43'612.4
2018-Jun-07 10:31N 01°11' E 103°49'713.1
2018-Jun-07 10:00N 01°14' E 103°55'612.8
2018-Jun-07 09:30N 01°15' E 104°01'713.5
2018-Jun-07 09:00N 01°16' E 104°08'713.2
2018-Jun-07 08:29N 01°17' E 104°15'812.8
2018-Jun-07 07:52N 01°20' E 104°22'  

Dump ship's entire track history